Time;durP1;ratioP1;P1;durP2;ratioP2;P2;SDS_P1;SDS_P2;PMS_P1;PMS_P2;Temp;Humidity;BMP_temperature;BMP_pressure;BME280_temperature;BME280_humidity;BME280_pressure;Samples;Min_cycle;Max_cycle;Signal;HPM_P1;HPM_P2
2021/03/04 00:02:24;;;;;;;1.37;0.82;;;25.70;12.00;;;;;;4365957;32;20066;-65
2021/03/04 00:04:50;;;;;;;1.98;1.20;;;25.70;11.90;;;;;;4392375;32;20511;-65
2021/03/04 00:07:17;;;;;;;1.73;1.08;;;25.70;11.90;;;;;;4392649;32;20170;-65
2021/03/04 00:09:43;;;;;;;2.85;1.23;;;25.60;11.80;;;;;;4355149;32;20153;-65
2021/03/04 00:12:09;;;;;;;2.40;0.88;;;25.50;12.80;;;;;;4367373;32;20074;-65
2021/03/04 00:14:36;;;;;;;2.80;1.35;;;25.50;11.90;;;;;;4367325;32;20086;-65
2021/03/04 00:17:02;;;;;;;2.90;1.30;;;25.60;11.90;;;;;;4368284;32;20516;-65
2021/03/04 00:19:28;;;;;;;2.37;1.30;;;25.30;11.90;;;;;;4356003;32;20656;-65
2021/03/04 00:21:54;;;;;;;2.05;1.37;;;25.20;12.00;;;;;;4391970;32;20086;-65
2021/03/04 00:24:20;;;;;;;2.78;1.40;;;25.50;11.90;;;;;;4392223;32;20159;-66
2021/03/04 00:26:46;;;;;;;1.92;1.37;;;25.40;11.90;;;;;;4396357;32;20185;-66
2021/03/04 00:29:13;;;;;;;1.30;1.12;;;25.30;12.10;;;;;;4369561;32;20087;-66
2021/03/04 00:31:40;;;;;;;3.75;1.30;;;25.30;12.00;;;;;;4369817;32;20074;-65
2021/03/04 00:34:07;;;;;;;1.77;0.95;;;25.30;11.90;;;;;;4381798;32;20160;-64
2021/03/04 00:36:33;;;;;;;1.98;1.20;;;25.40;11.90;;;;;;4382544;32;20122;-65
2021/03/04 00:39:00;;;;;;;1.83;1.02;;;25.70;11.70;;;;;;4381824;32;20451;-64
2021/03/04 00:41:26;;;;;;;2.10;1.20;;;25.60;11.60;;;;;;4372290;32;20112;-65
2021/03/04 00:43:52;;;;;;;2.87;1.10;;;25.50;11.70;;;;;;4398719;32;20073;-66
2021/03/04 00:46:19;;;;;;;1.83;1.05;;;25.40;11.80;;;;;;4381700;32;20097;-66
2021/03/04 00:48:45;;;;;;;1.67;0.90;;;25.60;11.60;;;;;;4368501;32;20073;-66
2021/03/04 00:51:12;;;;;;;2.60;1.42;;;25.70;11.60;;;;;;4369288;32;20534;-65
2021/03/04 00:53:38;;;;;;;3.05;1.30;;;25.80;11.50;;;;;;4407931;32;20053;-65
2021/03/04 00:56:04;;;;;;;2.20;1.23;;;25.90;11.20;;;;;;4406810;32;20151;-65
2021/03/04 00:58:30;;;;;;;3.47;1.73;;;25.90;11.20;;;;;;4394264;32;20096;-66
2021/03/04 01:00:57;;;;;;;2.10;1.12;;;26.00;11.30;;;;;;4406550;32;20062;-65
2021/03/04 01:03:23;;;;;;;1.35;1.10;;;25.90;11.20;;;;;;4390580;32;20287;-65
2021/03/04 01:05:50;;;;;;;1.67;1.23;;;25.70;11.30;;;;;;4353738;32;20074;-65
2021/03/04 01:08:16;;;;;;;2.72;1.45;;;25.70;11.40;;;;;;4390960;32;20066;-67
2021/03/04 01:10:43;;;;;;;2.45;1.45;;;25.50;11.40;;;;;;4366535;32;20157;-65
2021/03/04 01:13:09;;;;;;;2.60;1.37;;;25.60;11.50;;;;;;4391497;32;20078;-65
2021/03/04 01:15:35;;;;;;;2.33;1.15;;;25.50;11.40;;;;;;4378632;32;20129;-65
2021/03/04 01:18:04;;;;;;;2.67;1.15;;;25.30;11.60;;;;;;4378432;32;20093;-66
2021/03/04 01:20:30;;;;;;;2.22;1.40;;;25.50;11.50;;;;;;4378933;32;20073;-65
2021/03/04 01:22:56;;;;;;;1.42;1.10;;;25.70;11.30;;;;;;4367754;32;20167;-66
2021/03/04 01:25:23;;;;;;;2.60;1.25;;;25.70;11.30;;;;;;4367461;32;20584;-65
2021/03/04 01:27:51;;;;;;;3.78;1.30;;;25.70;11.20;;;;;;4388449;32;20524;-65
2021/03/04 01:30:22;;;;;;;2.35;1.30;;;25.50;11.40;;;;;;4369300;32;20138;-66
2021/03/04 01:32:49;;;;;;;1.67;1.20;;;25.40;11.60;;;;;;4381403;32;20065;-66
2021/03/04 01:35:15;;;;;;;1.70;1.40;;;25.30;11.60;;;;;;4405958;32;20077;-65
2021/03/04 01:37:42;;;;;;;2.85;1.42;;;25.60;11.30;;;;;;4368960;32;20509;-65
2021/03/04 01:40:11;;;;;;;1.77;1.15;;;25.70;11.20;;;;;;4380970;32;20086;-66
2021/03/04 01:42:37;;;;;;;3.55;1.87;;;25.70;11.20;;;;;;4382236;32;20138;-65
2021/03/04 01:45:07;;;;;;;2.05;1.05;;;25.50;11.30;;;;;;4393438;32;20152;-65
2021/03/04 01:47:38;;;;;;;2.25;1.37;;;25.30;11.60;;;;;;4364799;32;20081;-66
2021/03/04 01:50:08;;;;;;;2.70;1.55;;;25.30;11.60;;;;;;4365940;32;20105;-66
2021/03/04 01:52:35;;;;;;;3.17;1.75;;;25.30;11.50;;;;;;4378732;32;20110;-65
2021/03/04 01:55:03;;;;;;;3.00;1.60;;;25.50;11.60;;;;;;4374147;32;20081;-66
2021/03/04 01:57:32;;;;;;;3.30;1.70;;;25.30;11.40;;;;;;4393681;32;20066;-65
2021/03/04 01:59:59;;;;;;;2.67;1.37;;;25.30;11.50;;;;;;4392939;32;20530;-65
2021/03/04 02:02:25;;;;;;;2.87;1.70;;;25.40;11.20;;;;;;4402108;32;20078;-67
2021/03/04 02:04:53;;;;;;;2.65;1.50;;;25.30;11.50;;;;;;4341168;32;20081;-65
2021/03/04 02:07:51;;;;;;;3.35;1.50;;;25.30;11.40;;;;;;4353486;32;20103;-65
2021/03/04 02:10:40;;;;;;;2.80;1.70;;;25.40;11.30;;;;;;4379719;32;20134;-65
2021/03/04 02:13:33;;;;;;;3.10;1.37;;;25.30;11.40;;;;;;4369014;32;20534;-65
2021/03/04 02:16:12;;;;;;;1.90;1.55;;;25.40;11.40;;;;;;4380261;32;20060;-65
2021/03/04 02:19:00;;;;;;;2.25;1.60;;;25.30;11.20;;;;;;4377552;32;20073;-65
2021/03/04 02:22:05;;;;;;;2.80;1.62;;;25.20;11.40;;;;;;4378040;32;20100;-66
2021/03/04 02:24:47;;;;;;;4.00;1.92;;;25.50;11.40;;;;;;4390037;32;20088;-65
2021/03/04 02:27:17;;;;;;;3.28;1.70;;;25.60;11.20;;;;;;4383401;32;20432;-65
2021/03/04 02:29:50;;;;;;;2.72;1.65;;;25.10;11.20;;;;;;4392425;32;20168;-66
2021/03/04 02:32:21;;;;;;;4.22;2.15;;;25.20;11.40;;;;;;4378122;32;20117;-65
2021/03/04 02:34:50;;;;;;;3.92;2.10;;;25.00;11.50;;;;;;4378577;32;20077;-65
2021/03/04 02:37:19;;;;;;;4.35;1.70;;;25.10;11.50;;;;;;4377576;32;20476;-65
2021/03/04 02:39:46;;;;;;;2.90;1.52;;;25.20;11.50;;;;;;4365579;32;20085;-65
2021/03/04 02:42:17;;;;;;;3.22;1.75;;;25.00;11.50;;;;;;4377394;32;20093;-65
2021/03/04 02:44:44;;;;;;;4.18;1.67;;;25.20;11.40;;;;;;4353682;32;20086;-66
2021/03/04 02:47:11;;;;;;;3.20;1.40;;;25.20;11.40;;;;;;4364233;32;20575;-66
2021/03/04 02:49:37;;;;;;;3.28;1.70;;;24.80;11.50;;;;;;4352202;32;20141;-65
2021/03/04 02:52:04;;;;;;;3.55;1.75;;;25.10;11.50;;;;;;4389609;32;20151;-65
2021/03/04 02:54:31;;;;;;;2.92;1.50;;;25.10;11.20;;;;;;4373158;32;20078;-69
2021/03/04 02:56:57;;;;;;;2.30;1.42;;;25.00;11.20;;;;;;4367865;32;20093;-64
2021/03/04 02:59:23;;;;;;;2.42;1.80;;;24.60;11.70;;;;;;4392639;32;20181;-65
2021/03/04 03:01:49;;;;;;;2.62;1.67;;;24.80;11.60;;;;;;4380097;32;20087;-64
2021/03/04 03:04:18;;;;;;;3.25;1.75;;;24.80;11.50;;;;;;4391051;32;20077;-65
2021/03/04 03:06:44;;;;;;;3.33;1.70;;;24.90;11.40;;;;;;4392377;32;20074;-65
2021/03/04 03:09:10;;;;;;;3.50;1.80;;;24.90;11.50;;;;;;4405390;32;20062;-65
2021/03/04 03:11:37;;;;;;;3.40;2.00;;;24.90;11.30;;;;;;4373029;32;20598;-67
2021/03/04 03:14:03;;;;;;;3.80;1.80;;;24.80;11.60;;;;;;4365543;32;20073;-65
2021/03/04 03:16:29;;;;;;;3.37;1.45;;;24.70;11.60;;;;;;4390102;32;20518;-65
2021/03/04 03:18:55;;;;;;;2.47;1.48;;;24.90;11.50;;;;;;4391993;32;20148;-67
2021/03/04 03:21:22;;;;;;;3.35;1.60;;;24.90;11.40;;;;;;4393135;32;20077;-64
2021/03/04 03:23:48;;;;;;;3.05;1.65;;;24.50;11.60;;;;;;4392955;32;20073;-65
2021/03/04 03:26:14;;;;;;;3.22;1.77;;;24.60;11.70;;;;;;4406485;32;20217;-65
2021/03/04 03:28:41;;;;;;;4.22;1.83;;;24.40;11.80;;;;;;4365252;32;20089;-66
2021/03/04 03:31:08;;;;;;;3.10;2.03;;;24.50;11.80;;;;;;4378089;32;20074;-65
2021/03/04 03:33:34;;;;;;;3.05;1.92;;;24.80;11.50;;;;;;4371989;32;20150;-65
2021/03/04 03:36:02;;;;;;;2.55;1.48;;;24.60;11.60;;;;;;4377243;32;20058;-68
2021/03/04 03:38:28;;;;;;;4.30;2.00;;;24.90;11.40;;;;;;4367042;32;20093;-65
2021/03/04 03:40:55;;;;;;;2.75;1.90;;;24.30;11.60;;;;;;4380516;32;20523;-64
2021/03/04 03:43:22;;;;;;;2.15;1.73;;;24.60;11.70;;;;;;4380929;32;20429;-64
2021/03/04 03:45:50;;;;;;;3.30;1.75;;;24.70;11.50;;;;;;4380566;32;20126;-65
2021/03/04 03:48:18;;;;;;;4.60;1.92;;;24.60;11.60;;;;;;4374589;32;20061;-65
2021/03/04 03:50:54;;;;;;;5.45;1.92;;;24.60;11.50;;;;;;4379762;32;20089;-65
2021/03/04 03:53:21;;;;;;;5.97;2.30;;;24.60;11.40;;;;;;4355797;32;20066;-64
2021/03/04 03:55:48;;;;;;;4.35;2.17;;;24.40;11.80;;;;;;4384339;32;20058;-66
2021/03/04 03:58:18;;;;;;;3.95;2.12;;;24.60;11.60;;;;;;4382607;32;20054;-64
2021/03/04 04:00:47;;;;;;;3.85;2.00;;;24.80;11.30;;;;;;4370080;32;20074;-66
2021/03/04 04:03:13;;;;;;;3.78;1.92;;;24.90;11.10;;;;;;4373691;32;20076;-65
2021/03/04 04:05:39;;;;;;;4.18;1.80;;;24.80;11.20;;;;;;4355089;32;20225;-66
2021/03/04 04:08:06;;;;;;;2.67;1.85;;;24.70;11.20;;;;;;4355159;32;20070;-65
2021/03/04 04:10:36;;;;;;;5.05;2.37;;;25.10;10.90;;;;;;4367200;32;20573;-65
2021/03/04 04:13:03;;;;;;;2.70;1.90;;;25.00;10.90;;;;;;4380279;32;20070;-66
2021/03/04 04:15:30;;;;;;;4.18;1.98;;;25.00;10.80;;;;;;4344050;32;20515;-65
2021/03/04 04:17:58;;;;;;;3.15;1.92;;;24.60;11.10;;;;;;4357624;32;20084;-65
2021/03/04 04:20:25;;;;;;;2.62;1.70;;;24.90;11.10;;;;;;4368882;32;20066;-65
2021/03/04 04:22:52;;;;;;;2.85;2.08;;;24.90;10.90;;;;;;4367408;32;20129;-65
2021/03/04 04:25:26;;;;;;;2.37;1.60;;;24.90;10.80;;;;;;4342324;32;20150;-64
2021/03/04 04:27:53;;;;;;;3.45;2.00;;;25.00;10.80;;;;;;4374615;32;20534;-65
2021/03/04 04:30:21;;;;;;;3.72;2.37;;;25.00;10.80;;;;;;4379270;32;20062;-65
2021/03/04 04:32:47;;;;;;;3.50;2.03;;;25.20;10.70;;;;;;4379895;32;20197;-66
2021/03/04 04:35:14;;;;;;;5.07;1.70;;;25.20;10.60;;;;;;4379921;32;20062;-65
2021/03/04 04:37:40;;;;;;;3.67;1.90;;;25.10;11.60;;;;;;4391970;32;20061;-65
2021/03/04 04:40:07;;;;;;;4.22;1.95;;;25.00;10.60;;;;;;4391820;32;20532;-66
2021/03/04 04:42:34;;;;;;;5.00;1.95;;;25.00;10.70;;;;;;4379047;32;20088;-66
2021/03/04 04:45:02;;;;;;;3.85;1.98;;;25.00;10.80;;;;;;4379175;32;20140;-65
2021/03/04 04:47:28;;;;;;;2.12;1.67;;;25.10;10.50;;;;;;4378556;32;20062;-65
2021/03/04 04:49:54;;;;;;;5.15;2.40;;;24.80;10.80;;;;;;4401824;32;20081;-61
2021/03/04 04:52:20;;;;;;;2.70;1.80;;;24.70;11.00;;;;;;4394581;32;20077;-62
2021/03/04 04:54:46;;;;;;;3.33;1.95;;;24.60;11.10;;;;;;4406420;32;20067;-65
2021/03/04 04:57:13;;;;;;;3.10;1.55;;;24.90;11.90;;;;;;4354390;32;20525;-63
2021/03/04 04:59:39;;;;;;;2.45;1.58;;;25.30;10.40;;;;;;4391473;32;20088;-65
2021/03/04 05:02:06;;;;;;;3.62;1.83;;;25.30;10.40;;;;;;4378520;32;20513;-64
2021/03/04 05:04:32;;;;;;;3.25;1.62;;;25.10;10.60;;;;;;4379509;32;20066;-64
2021/03/04 05:06:58;;;;;;;3.53;1.90;;;24.90;10.90;;;;;;4391443;32;20085;-65
2021/03/04 05:09:25;;;;;;;3.67;1.98;;;25.20;10.70;;;;;;4341561;32;20499;-64
2021/03/04 05:11:52;;;;;;;3.15;1.90;;;25.20;10.60;;;;;;4378688;32;20157;-66
2021/03/04 05:14:18;;;;;;;3.20;1.98;;;25.40;10.40;;;;;;4366460;32;20599;-64
2021/03/04 05:16:44;;;;;;;3.80;1.90;;;25.50;10.30;;;;;;4354370;32;20444;-64
2021/03/04 05:19:10;;;;;;;3.47;2.40;;;25.20;10.40;;;;;;4378144;32;20605;-63
2021/03/04 05:21:37;;;;;;;3.65;2.22;;;25.20;10.50;;;;;;4378791;32;20070;-64
2021/03/04 05:24:03;;;;;;;2.85;2.12;;;25.30;10.40;;;;;;4392479;32;20151;-62
2021/03/04 05:26:29;;;;;;;5.68;2.35;;;25.40;10.50;;;;;;4380256;32;20073;-63
2021/03/04 05:28:56;;;;;;;4.72;2.20;;;25.30;10.40;;;;;;4380894;32;20162;-63
2021/03/04 05:31:22;;;;;;;5.93;2.50;;;25.10;10.60;;;;;;4391476;32;20523;-65
2021/03/04 05:33:48;;;;;;;4.55;2.05;;;25.50;10.40;;;;;;4379981;32;20169;-62
2021/03/04 05:36:15;;;;;;;5.30;2.47;;;25.70;10.40;;;;;;4355212;32;20058;-62
2021/03/04 05:38:41;;;;;;;6.95;3.30;;;25.60;10.50;;;;;;4375485;32;20146;-64
2021/03/04 05:41:08;;;;;;;6.75;2.97;;;25.60;10.50;;;;;;4365089;32;20077;-64
2021/03/04 05:43:36;;;;;;;5.75;2.50;;;25.50;10.50;;;;;;4399607;32;20635;-62
2021/03/04 05:46:03;;;;;;;5.90;2.70;;;25.40;10.90;;;;;;4378085;32;20080;-64
2021/03/04 05:48:29;;;;;;;4.72;2.45;;;25.00;11.50;;;;;;4353083;32;20102;-63
2021/03/04 05:50:57;;;;;;;4.75;2.42;;;24.20;12.30;;;;;;4380092;32;20123;-62
2021/03/04 05:53:23;;;;;;;6.18;2.53;;;23.60;13.30;;;;;;4376992;32;20081;-62
2021/03/04 05:55:49;;;;;;;3.92;2.08;;;24.30;13.00;;;;;;4376704;32;20167;-63
2021/03/04 05:58:15;;;;;;;5.40;2.35;;;24.00;13.00;;;;;;4391420;32;20077;-62
2021/03/04 06:00:43;;;;;;;4.65;2.50;;;23.80;13.40;;;;;;4377792;32;20066;-62
2021/03/04 06:03:10;;;;;;;4.85;2.62;;;24.30;13.20;;;;;;4387672;32;20101;-62
2021/03/04 06:05:36;;;;;;;5.72;2.72;;;23.80;13.50;;;;;;4360639;32;20189;-62
2021/03/04 06:08:04;;;;;;;6.10;2.80;;;23.60;13.80;;;;;;4366643;32;20098;-59
2021/03/04 06:10:31;;;;;;;5.00;3.15;;;23.80;13.60;;;;;;4396302;32;20148;-61
2021/03/04 06:12:58;;;;;;;6.78;3.00;;;24.20;13.40;;;;;;4353943;32;20157;-63
2021/03/04 06:15:25;;;;;;;7.15;3.28;;;25.00;12.90;;;;;;4373353;32;20129;-62
2021/03/04 06:17:56;;;;;;;6.60;3.15;;;24.70;12.70;;;;;;4374269;32;20062;-63
2021/03/04 06:20:23;;;;;;;6.12;2.70;;;24.30;13.30;;;;;;4383501;32;20081;-63
2021/03/04 06:22:51;;;;;;;5.35;3.03;;;23.90;14.10;;;;;;4380671;32;20092;-62
2021/03/04 06:25:17;;;;;;;4.15;2.33;;;23.80;14.40;;;;;;4372201;32;20173;-64
2021/03/04 06:27:46;;;;;;;4.72;2.65;;;23.80;14.60;;;;;;4366307;32;20082;-64
2021/03/04 06:30:15;;;;;;;4.60;2.30;;;23.80;14.50;;;;;;4377908;32;20086;-63
2021/03/04 06:32:59;;;;;;;6.55;2.20;;;23.50;14.90;;;;;;4380461;32;20066;-65
2021/03/04 06:35:42;;;;;;;5.43;2.35;;;23.70;14.70;;;;;;4372160;32;20072;-62
2021/03/04 06:38:19;;;;;;;2.40;1.90;;;23.70;14.40;;;;;;4378673;32;20149;-62
2021/03/04 06:40:48;;;;;;;3.83;2.03;;;24.00;14.50;;;;;;4377066;32;20085;-61
2021/03/04 06:43:26;;;;;;;4.28;2.20;;;24.20;14.20;;;;;;4380984;32;20076;-62
2021/03/04 06:46:06;;;;;;;3.30;2.00;;;24.40;14.20;;;;;;4377678;32;20429;-61
2021/03/04 06:48:32;;;;;;;3.65;2.17;;;24.30;14.00;;;;;;4375370;32;20073;-62
2021/03/04 06:51:00;;;;;;;5.15;2.00;;;24.60;13.70;;;;;;4401714;32;20162;-63
2021/03/04 06:53:29;;;;;;;3.12;1.87;;;24.30;13.90;;;;;;4381558;32;20070;-61
2021/03/04 06:56:06;;;;;;;4.47;2.08;;;24.70;13.70;;;;;;4378510;32;20093;-64
2021/03/04 06:58:40;;;;;;;3.50;1.85;;;24.60;13.70;;;;;;4379174;32;20081;-61
2021/03/04 07:01:16;;;;;;;3.75;1.87;;;24.90;13.20;;;;;;4372114;32;20058;-62
2021/03/04 07:03:49;;;;;;;3.25;1.87;;;24.90;13.60;;;;;;4381087;32;20065;-61
2021/03/04 07:06:21;;;;;;;4.75;1.90;;;25.00;13.70;;;;;;4366741;32;20075;-62
2021/03/04 07:08:49;;;;;;;3.30;1.85;;;25.00;13.80;;;;;;4363999;32;20508;-62
2021/03/04 07:11:21;;;;;;;5.20;2.85;;;25.10;13.70;;;;;;4370146;32;20090;-63
2021/03/04 07:13:47;;;;;;;3.37;2.17;;;24.80;14.00;;;;;;4377785;32;20149;-62
2021/03/04 07:16:28;;;;;;;4.12;1.80;;;25.10;13.70;;;;;;4363829;32;20654;-62
2021/03/04 07:18:56;;;;;;;2.80;1.90;;;25.30;13.60;;;;;;4373992;32;20081;-63
2021/03/04 07:21:28;;;;;;;3.00;1.45;;;25.40;13.40;;;;;;4378718;32;20107;-63
2021/03/04 07:23:54;;;;;;;3.15;1.67;;;25.30;13.60;;;;;;4389545;32;20100;-62
2021/03/04 07:26:22;;;;;;;2.92;1.80;;;25.20;14.10;;;;;;4380746;32;20066;-64
2021/03/04 07:28:51;;;;;;;2.60;1.60;;;25.30;14.20;;;;;;4380358;32;20076;-64
2021/03/04 07:31:17;;;;;;;3.35;2.00;;;25.50;14.30;;;;;;4371729;32;20104;-64
2021/03/04 07:33:46;;;;;;;2.33;1.73;;;25.80;14.30;;;;;;4380505;32;20085;-64
2021/03/04 07:36:13;;;;;;;3.17;1.67;;;25.90;14.80;;;;;;4380245;32;20152;-65
2021/03/04 07:38:40;;;;;;;4.00;2.10;;;25.90;14.00;;;;;;4365341;32;20081;-65
2021/03/04 07:41:13;;;;;;;2.80;1.87;;;25.60;14.10;;;;;;4381158;32;20494;-65
2021/03/04 07:43:57;;;;;;;3.28;1.65;;;25.60;14.40;;;;;;4388931;32;20081;-67
2021/03/04 07:46:28;;;;;;;2.70;1.77;;;26.00;14.00;;;;;;4374796;32;20152;-66
2021/03/04 07:48:54;;;;;;;2.70;1.87;;;26.30;13.40;;;;;;4366680;32;20113;-67
2021/03/04 07:51:21;;;;;;;3.40;2.10;;;26.20;13.40;;;;;;4389087;32;20074;-66
2021/03/04 07:53:47;;;;;;;3.15;1.85;;;25.90;14.20;;;;;;4362882;32;20073;-64
2021/03/04 07:56:27;;;;;;;3.47;1.83;;;26.30;13.90;;;;;;4359529;32;20081;-64
2021/03/04 07:59:14;;;;;;;3.35;2.05;;;26.20;13.80;;;;;;4378898;32;20456;-63
2021/03/04 08:01:42;;;;;;;5.00;2.12;;;26.20;13.90;;;;;;4385559;32;20170;-63
2021/03/04 08:04:23;;;;;;;3.58;1.92;;;26.50;13.60;;;;;;4370017;32;20504;-63
2021/03/04 08:06:53;;;;;;;3.55;2.08;;;26.60;13.40;;;;;;4375509;32;20076;-62
2021/03/04 08:09:33;;;;;;;5.68;2.12;;;26.70;13.60;;;;;;4348758;32;20075;-65
2021/03/04 08:12:13;;;;;;;4.12;2.40;;;26.50;13.50;;;;;;4382712;32;20143;-65
2021/03/04 08:14:53;;;;;;;5.55;2.40;;;26.40;13.70;;;;;;4372189;32;20085;-62
2021/03/04 08:17:19;;;;;;;2.97;1.87;;;26.40;13.80;;;;;;4376884;32;20123;-63
2021/03/04 08:19:48;;;;;;;4.47;2.37;;;26.50;13.80;;;;;;4372092;32;20090;-63
2021/03/04 08:22:21;;;;;;;2.87;1.80;;;26.40;13.70;;;;;;4376083;32;20575;-64
2021/03/04 08:24:47;;;;;;;2.60;1.90;;;25.50;14.00;;;;;;4365799;32;20524;-63
2021/03/04 08:27:14;;;;;;;3.67;1.90;;;24.60;15.40;;;;;;4405018;32;20097;-64
2021/03/04 08:29:49;;;;;;;4.25;2.28;;;24.00;16.20;;;;;;4372468;32;20451;-63
2021/03/04 08:32:16;;;;;;;3.67;2.05;;;23.90;16.50;;;;;;4355590;32;20210;-64
2021/03/04 08:34:45;;;;;;;2.78;2.08;;;23.90;16.50;;;;;;4397806;32;20077;-63
2021/03/04 08:37:23;;;;;;;5.30;2.47;;;23.90;16.50;;;;;;4390931;32;20274;-65
2021/03/04 08:40:10;;;;;;;3.83;2.10;;;23.90;16.50;;;;;;4369615;32;20526;-65
2021/03/04 08:42:36;;;;;;;;;;;24.20;16.30;;;;;;4370668;32;20151;-64
2021/03/04 08:45:03;;;;;;;3.47;2.17;;;24.30;16.20;;;;;;4379602;32;20106;-63
2021/03/04 08:47:29;;;;;;;3.33;2.00;;;24.10;16.50;;;;;;4375577;32;20069;-65
2021/03/04 08:50:00;;;;;;;4.45;2.15;;;24.20;16.20;;;;;;4358923;32;20069;-65
2021/03/04 08:52:28;;;;;;;3.42;2.10;;;24.10;16.60;;;;;;4356028;32;20085;-65
2021/03/04 08:54:58;;;;;;;5.07;2.20;;;24.00;16.60;;;;;;4376190;32;20087;-66
2021/03/04 08:57:28;;;;;;;2.67;1.87;;;24.10;16.60;;;;;;4382080;32;20508;-65
2021/03/04 09:00:21;;;;;;;4.62;2.17;;;23.90;16.90;;;;;;4391119;32;20159;-64
2021/03/04 09:02:48;;;;;;;4.30;1.87;;;23.90;16.50;;;;;;4387987;32;20508;-63
2021/03/04 09:05:22;;;;;;;8.45;2.37;;;24.20;16.60;;;;;;4381571;32;20077;-63
2021/03/04 09:07:48;;;;;;;4.25;2.33;;;24.70;17.10;;;;;;4365611;32;20120;-65
2021/03/04 09:10:15;;;;;;;4.72;3.03;;;24.70;16.80;;;;;;4367724;32;20101;-64
2021/03/04 09:12:48;;;;;;;4.05;1.70;;;24.60;16.70;;;;;;4366857;32;20069;-64
2021/03/04 09:15:20;;;;;;;2.37;1.73;;;25.10;17.00;;;;;;4368746;32;20451;-64
2021/03/04 09:17:47;;;;;;;2.58;1.77;;;;;;;;;;4384385;32;20170;-57
2021/03/04 09:20:15;;;;;;;3.95;2.33;;;25.50;42.00;;;;;;4365905;32;20085;-57
2021/03/04 09:22:44;;;;;;;3.62;2.60;;;24.10;18.90;;;;;;4369307;32;20545;-62
2021/03/04 09:25:20;;;;;;;4.37;2.10;;;1.90;41.20;;;;;;4384064;32;20180;-62
2021/03/04 09:27:49;;;;;;;5.87;2.58;;;-0.20;61.90;;;;;;4389799;32;20231;-61
2021/03/04 09:30:29;;;;;;;5.72;2.45;;;-0.40;63.30;;;;;;4371418;32;20081;-62
2021/03/04 09:32:56;;;;;;;6.03;2.45;;;-0.30;64.00;;;;;;4383654;32;20073;-61
2021/03/04 09:35:23;;;;;;;5.25;2.20;;;-0.40;63.90;;;;;;4370923;32;20085;-61
2021/03/04 09:37:50;;;;;;;3.87;2.12;;;-0.30;64.20;;;;;;4381572;32;20508;-60
2021/03/04 09:40:28;;;;;;;3.03;2.22;;;-0.30;64.00;;;;;;4365518;32;20556;-63
2021/03/04 09:42:55;;;;;;;5.43;2.50;;;-0.50;64.70;;;;;;4383794;32;20089;-61
2021/03/04 09:45:21;;;;;;;3.92;2.40;;;-0.40;65.20;;;;;;4378666;32;20139;-62
2021/03/04 09:47:50;;;;;;;2.58;1.67;;;-0.40;65.40;;;;;;4365923;32;20597;-60
2021/03/04 09:50:17;;;;;;;4.55;2.47;;;-0.40;65.90;;;;;;4367211;32;20135;-62
2021/03/04 09:52:43;;;;;;;3.58;2.10;;;-0.30;66.40;;;;;;4393897;32;20073;-61
2021/03/04 09:55:17;;;;;;;4.18;2.30;;;-0.20;66.40;;;;;;4386558;32;20085;-62
2021/03/04 09:57:45;;;;;;;4.00;2.00;;;-0.20;65.90;;;;;;4381531;32;20269;-62
2021/03/04 10:00:29;;;;;;;3.35;2.28;;;-0.20;66.00;;;;;;4368701;32;20096;-63
2021/03/04 10:02:57;;;;;;;4.72;2.25;;;-0.10;66.00;;;;;;4362166;32;20076;-61
2021/03/04 10:05:27;;;;;;;5.30;2.30;;;0.20;64.60;;;;;;4374008;32;20077;-62
2021/03/04 10:07:59;;;;;;;4.28;2.40;;;-0.10;65.30;;;;;;4382049;32;20058;-62
2021/03/04 10:10:25;;;;;;;3.25;2.30;;;0.00;65.10;;;;;;4368363;32;20544;-58
2021/03/04 10:12:58;;;;;;;3.80;2.50;;;0.10;64.40;;;;;;4365014;32;20085;-63
2021/03/04 10:15:33;;;;;;;3.80;2.08;;;0.10;65.40;;;;;;4380614;32;20081;-60
2021/03/04 10:18:22;;;;;;;4.82;2.62;;;0.20;64.70;;;;;;4388562;32;20112;-61
2021/03/04 10:20:48;;;;;;;4.55;2.42;;;0.00;65.60;;;;;;4395187;32;20116;-62
2021/03/04 10:23:16;;;;;;;4.40;2.42;;;0.10;65.50;;;;;;4385157;32;20089;-62
2021/03/04 10:25:43;;;;;;;2.67;1.95;;;0.00;65.90;;;;;;4373663;32;20101;-60
2021/03/04 10:28:09;;;;;;;5.53;2.58;;;0.10;66.60;;;;;;4384630;32;20097;-61
2021/03/04 10:30:37;;;;;;;4.07;2.10;;;0.00;68.20;;;;;;4395760;32;20066;-61
2021/03/04 10:33:04;;;;;;;3.80;2.00;;;0.20;66.90;;;;;;4386171;32;20105;-62
2021/03/04 10:35:31;;;;;;;5.10;2.97;;;0.00;66.80;;;;;;4379354;32;20174;-61
2021/03/04 10:37:57;;;;;;;3.58;2.40;;;0.20;67.30;;;;;;4375486;32;20437;-62
2021/03/04 10:40:24;;;;;;;4.22;2.42;;;0.00;68.20;;;;;;4387775;32;20157;-61
2021/03/04 10:42:50;;;;;;;4.93;2.50;;;0.00;68.30;;;;;;4387937;32;20085;-63
2021/03/04 10:45:18;;;;;;;4.05;2.37;;;0.10;67.90;;;;;;4388582;32;20058;-62
2021/03/04 10:47:45;;;;;;;3.55;2.22;;;0.20;68.20;;;;;;4384293;32;20223;-61
2021/03/04 10:50:18;;;;;;;3.85;2.37;;;0.30;68.00;;;;;;4374415;32;20066;-60
2021/03/04 10:52:45;;;;;;;4.70;2.40;;;0.20;68.40;;;;;;4380731;32;20122;-61
2021/03/04 10:55:12;;;;;;;4.40;2.28;;;0.20;68.90;;;;;;4363069;32;20444;-60
2021/03/04 10:57:39;;;;;;;4.28;2.60;;;0.10;69.00;;;;;;4366733;32;20085;-61
2021/03/04 11:00:07;;;;;;;4.37;2.22;;;0.20;69.30;;;;;;4382457;32;20065;-61
2021/03/04 11:02:34;;;;;;;4.47;2.40;;;0.50;68.50;;;;;;4365347;32;20070;-63
2021/03/04 11:05:00;;;;;;;5.80;2.50;;;0.40;68.20;;;;;;4358154;32;20158;-69
2021/03/04 11:07:28;;;;;;;3.80;2.28;;;0.30;69.20;;;;;;4382778;32;20097;-63
2021/03/04 11:09:55;;;;;;;4.05;2.40;;;0.30;68.90;;;;;;4392695;32;20113;-63
2021/03/04 11:12:21;;;;;;;3.15;2.17;;;0.30;69.40;;;;;;4386315;32;20104;-62
2021/03/04 11:14:47;;;;;;;3.75;1.92;;;0.30;69.60;;;;;;4367097;32;20140;-60
2021/03/04 11:17:14;;;;;;;5.43;2.55;;;0.40;69.60;;;;;;4393178;32;20080;-61
2021/03/04 11:19:41;;;;;;;3.95;2.30;;;0.40;69.60;;;;;;4367064;32;20073;-63
2021/03/04 11:22:07;;;;;;;3.15;2.33;;;0.40;69.90;;;;;;4388717;32;20070;-58
2021/03/04 11:24:34;;;;;;;4.30;2.50;;;0.50;70.10;;;;;;4381176;32;20077;-61
2021/03/04 11:27:00;;;;;;;4.07;2.62;;;0.60;69.80;;;;;;4379865;32;20069;-62
2021/03/04 11:29:26;;;;;;;5.28;2.50;;;0.60;69.70;;;;;;4378610;32;20073;-62
2021/03/04 11:31:53;;;;;;;4.40;2.50;;;0.50;70.40;;;;;;4394940;32;20097;-60
2021/03/04 11:34:19;;;;;;;3.58;2.30;;;0.50;70.60;;;;;;4371260;32;20085;-59
2021/03/04 11:36:45;;;;;;;3.40;2.37;;;0.60;70.70;;;;;;4391289;32;20061;-61
2021/03/04 11:39:12;;;;;;;4.68;2.72;;;0.60;70.50;;;;;;4370178;32;20077;-60
2021/03/04 11:41:39;;;;;;;4.18;2.42;;;0.60;70.70;;;;;;4374536;32;20481;-60
2021/03/04 11:44:06;;;;;;;3.92;2.60;;;0.70;71.20;;;;;;4385456;32;20077;-62
2021/03/04 11:46:33;;;;;;;3.65;2.25;;;0.50;71.60;;;;;;4392026;32;20065;-62
2021/03/04 11:48:59;;;;;;;4.07;2.80;;;0.50;72.00;;;;;;4368199;32;20114;-64
2021/03/04 11:51:25;;;;;;;4.78;2.12;;;0.50;72.20;;;;;;4401692;32;20102;-64
2021/03/04 11:53:51;;;;;;;4.68;2.85;;;0.50;72.80;;;;;;4376203;32;20111;-61
2021/03/04 11:56:18;;;;;;;3.45;2.20;;;1.50;68.80;;;;;;4382248;32;20065;-60
2021/03/04 11:58:44;;;;;;;4.07;2.50;;;1.80;66.60;;;;;;4394691;32;20063;-60
2021/03/04 12:01:10;;;;;;;3.03;2.15;;;1.70;66.70;;;;;;4398218;32;20093;-62
2021/03/04 12:03:36;;;;;;;5.18;2.58;;;1.60;67.40;;;;;;4394914;32;20093;-65
2021/03/04 12:06:03;;;;;;;2.90;2.37;;;1.60;67.30;;;;;;4380999;32;20081;-61
2021/03/04 12:08:29;;;;;;;4.87;2.58;;;1.60;67.90;;;;;;4364944;32;20595;-60
2021/03/04 12:10:55;;;;;;;3.70;2.33;;;1.70;67.80;;;;;;4398098;32;20081;-62
2021/03/04 12:13:21;;;;;;;3.40;2.20;;;1.80;67.80;;;;;;4382590;32;20066;-62
2021/03/04 12:15:47;;;;;;;4.55;2.35;;;1.70;67.80;;;;;;4384556;32;20077;-59
2021/03/04 12:18:14;;;;;;;5.07;2.40;;;1.70;67.50;;;;;;4395285;32;20107;-60
2021/03/04 12:20:40;;;;;;;3.83;2.17;;;1.80;68.10;;;;;;4391473;32;20724;-60
2021/03/04 12:23:07;;;;;;;4.00;2.55;;;1.70;68.30;;;;;;4393477;32;20133;-60
2021/03/04 12:25:36;;;;;;;3.30;1.95;;;1.70;68.40;;;;;;4392235;32;20081;-62
2021/03/04 12:28:02;;;;;;;3.62;2.20;;;1.80;68.30;;;;;;4370672;32;20069;-61
2021/03/04 12:30:29;;;;;;;4.47;1.95;;;1.80;68.10;;;;;;4354939;32;20452;-64
2021/03/04 12:32:55;;;;;;;4.62;2.47;;;1.80;68.20;;;;;;4393216;32;20080;-60
2021/03/04 12:35:21;;;;;;;5.28;2.40;;;1.70;68.60;;;;;;4381894;32;20141;-61
2021/03/04 12:37:48;;;;;;;4.25;2.50;;;1.60;68.90;;;;;;4382715;32;20062;-61
2021/03/04 12:40:15;;;;;;;3.35;2.28;;;1.70;69.00;;;;;;4392811;32;20070;-60
2021/03/04 12:42:41;;;;;;;5.12;2.42;;;1.80;69.10;;;;;;4379340;32;20128;-61
2021/03/04 12:45:09;;;;;;;4.47;2.70;;;1.90;68.90;;;;;;4391049;32;20113;-61
2021/03/04 12:47:35;;;;;;;3.92;2.30;;;1.80;69.00;;;;;;4366067;32;20070;-59
2021/03/04 12:50:02;;;;;;;3.67;2.47;;;1.90;69.10;;;;;;4384581;32;20081;-60
2021/03/04 12:52:32;;;;;;;4.10;2.80;;;1.90;69.00;;;;;;4381403;32;20077;-60
2021/03/04 12:54:58;;;;;;;3.53;2.50;;;2.00;69.10;;;;;;4382720;32;20088;-61
2021/03/04 12:57:25;;;;;;;4.43;2.28;;;2.00;68.80;;;;;;4372126;32;20069;-63
2021/03/04 12:59:51;;;;;;;3.92;2.45;;;2.00;69.10;;;;;;4374423;32;20146;-60